createdAt,value
2023-03-15T00:01:31.162Z,7.97
2023-03-15T00:04:33.841Z,10.95
2023-03-15T00:07:36.447Z,12.98
2023-03-15T00:10:46.654Z,18.97
2023-03-15T00:13:50.796Z,28.65
2023-03-15T00:16:54.864Z,35.58
2023-03-15T00:19:58.087Z,36.15
2023-03-15T00:23:00.780Z,27.63
2023-03-15T00:26:03.421Z,26.53
2023-03-15T00:29:06.239Z,22.45
2023-03-15T00:32:08.989Z,14.85
2023-03-15T00:35:13.157Z,6.97
2023-03-15T00:38:15.937Z,11.77
2023-03-15T00:41:21.341Z,56.77
2023-03-15T00:44:24.638Z,66.88
2023-03-15T00:47:27.310Z,15.52
2023-03-15T00:50:30.553Z,11.95
2023-03-15T00:53:34.311Z,5.50
2023-03-15T00:56:37.736Z,7.30
2023-03-15T00:59:40.459Z,6.00
2023-03-15T01:02:43.440Z,5.43
2023-03-15T01:05:46.276Z,5.90
2023-03-15T01:08:49.473Z,4.22
2023-03-15T01:11:52.173Z,4.93
2023-03-15T01:14:54.839Z,5.43
2023-03-15T01:17:58.709Z,5.13
2023-03-15T01:21:01.464Z,11.32
2023-03-15T01:24:04.426Z,12.38
2023-03-15T01:27:07.079Z,9.43
2023-03-15T01:30:10.589Z,8.75
2023-03-15T01:33:15.463Z,7.05
2023-03-15T01:36:18.760Z,8.35
2023-03-15T01:39:22.218Z,7.22
2023-03-15T01:42:25.328Z,7.47
2023-03-15T01:46:01.898Z,10.32
2023-03-15T01:49:27.831Z,10.02
2023-03-15T01:52:34.611Z,15.23
2023-03-15T01:55:39.163Z,9.40
2023-03-15T01:58:46.517Z,8.13
2023-03-15T02:01:50.823Z,7.75
2023-03-15T02:04:58.043Z,6.93
2023-03-15T02:08:01.952Z,6.43
2023-03-15T02:11:08.404Z,9.43
2023-03-15T02:14:12.597Z,5.60
2023-03-15T02:17:19.333Z,7.38
2023-03-15T02:21:05.934Z,7.63
2023-03-15T02:24:28.374Z,11.05
2023-03-15T02:27:34.571Z,12.82
2023-03-15T02:30:39.667Z,13.47
2023-03-15T02:34:00.452Z,15.95
2023-03-15T02:37:03.112Z,22.45
2023-03-15T02:40:27.962Z,19.35
2023-03-15T02:43:31.302Z,25.27
2023-03-15T02:46:34.612Z,18.77
2023-03-15T02:49:44.135Z,14.77
2023-03-15T02:52:48.330Z,16.88
2023-03-15T02:55:51.926Z,14.32
2023-03-15T02:58:54.571Z,12.55
2023-03-15T03:01:57.281Z,11.03
2023-03-15T03:04:59.883Z,12.90
2023-03-15T03:08:02.921Z,14.00
2023-03-15T03:11:06.863Z,11.30
2023-03-15T03:14:14.243Z,12.20
2023-03-15T03:17:18.055Z,18.83
2023-03-15T03:20:21.691Z,16.10
2023-03-15T03:23:26.138Z,12.60
2023-03-15T03:26:32.798Z,8.93
2023-03-15T03:29:35.542Z,9.05
2023-03-15T03:32:40.644Z,8.23
2023-03-15T03:35:43.670Z,11.25
2023-03-15T03:38:47.084Z,9.60
2023-03-15T03:41:50.872Z,7.93
2023-03-15T03:44:54.606Z,7.25
2023-03-15T03:48:03.855Z,7.30
2023-03-15T03:51:08.603Z,7.80
2023-03-15T03:54:11.565Z,9.25
2023-03-15T03:57:14.327Z,8.40
2023-03-15T04:00:18.558Z,8.43
2023-03-15T04:03:27.338Z,8.83
2023-03-15T04:06:37.112Z,23.80
2023-03-15T04:09:39.866Z,21.33
2023-03-15T04:12:43.976Z,11.80
2023-03-15T04:15:48.332Z,15.25
2023-03-15T04:18:52.121Z,13.27
2023-03-15T04:21:54.838Z,16.85
2023-03-15T04:25:11.996Z,20.10
2023-03-15T04:28:23.757Z,20.73
2023-03-15T04:31:37.871Z,20.48
2023-03-15T04:34:59.056Z,15.07
2023-03-15T04:38:09.497Z,15.02
2023-03-15T04:41:21.429Z,14.93
2023-03-15T04:44:41.056Z,16.75
2023-03-15T04:47:52.552Z,16.38
2023-03-15T04:51:14.046Z,16.90
2023-03-15T04:54:27.027Z,23.48
2023-03-15T04:57:45.873Z,17.88
2023-03-15T05:01:15.084Z,16.23
2023-03-15T05:04:49.775Z,17.23
2023-03-15T05:08:15.753Z,16.87
2023-03-15T05:11:47.371Z,17.52
2023-03-15T05:15:07.436Z,19.15
2023-03-15T05:18:30.448Z,15.43
2023-03-15T05:22:08.302Z,14.88
2023-03-15T05:25:38.682Z,14.50
2023-03-15T05:28:45.393Z,14.25
2023-03-15T05:32:07.374Z,15.00
2023-03-15T05:35:28.092Z,9.93
2023-03-15T05:38:51.844Z,8.43
2023-03-15T05:42:05.628Z,12.87
2023-03-15T05:45:27.126Z,13.35
2023-03-15T05:48:40.160Z,12.80
2023-03-15T05:51:51.360Z,11.65
2023-03-15T05:55:23.561Z,6.95
2023-03-15T05:58:44.476Z,5.77
2023-03-15T06:02:06.232Z,4.65
2023-03-15T06:05:20.899Z,5.32
2023-03-15T06:08:25.357Z,12.40
2023-03-15T06:11:28.109Z,15.38
2023-03-15T06:14:31.231Z,12.37
2023-03-15T06:17:38.067Z,11.68
2023-03-15T06:20:43.877Z,6.55
2023-03-15T06:23:49.627Z,4.25
2023-03-15T06:26:55.041Z,0.98
2023-03-15T06:29:58.580Z,1.03
2023-03-15T06:33:01.724Z,0.68
2023-03-15T06:36:08.202Z,0.35
2023-03-15T06:39:12.264Z,0.47
2023-03-15T06:42:14.838Z,1.67
2023-03-15T06:45:17.679Z,2.10
2023-03-15T06:48:22.430Z,0.98
2023-03-15T06:51:25.544Z,0.95
2023-03-15T06:54:28.481Z,1.30
2023-03-15T06:57:31.201Z,1.00
2023-03-15T07:00:35.434Z,0.97
2023-03-15T07:03:38.228Z,5.95
2023-03-15T07:06:41.069Z,2.15
2023-03-15T07:09:43.909Z,3.08
2023-03-15T07:12:46.694Z,2.45
2023-03-15T07:15:53.867Z,0.70
2023-03-15T07:18:59.411Z,2.08
2023-03-15T07:22:02.154Z,1.10
2023-03-15T07:25:07.494Z,0.60
2023-03-15T07:28:10.301Z,0.40
2023-03-15T07:31:13.463Z,0.50
2023-03-15T07:34:16.481Z,1.35
2023-03-15T07:37:19.251Z,1.15
2023-03-15T07:40:22.031Z,1.27
2023-03-15T07:43:24.810Z,2.38
2023-03-15T07:46:36.361Z,1.33
2023-03-15T07:49:39.181Z,5.88
2023-03-15T07:52:41.798Z,3.58
2023-03-15T07:55:45.063Z,4.15
2023-03-15T07:58:47.653Z,2.58
2023-03-15T08:01:50.574Z,27.97
2023-03-15T08:04:53.364Z,6.57
2023-03-15T08:07:56.818Z,5.90
2023-03-15T08:11:01.144Z,7.55
2023-03-15T08:14:03.885Z,3.67
2023-03-15T08:17:06.639Z,14.63
2023-03-15T08:20:15.060Z,4.13
2023-03-15T08:23:17.866Z,2.80
2023-03-15T08:26:20.495Z,1.73
2023-03-15T08:29:23.267Z,2.95
2023-03-15T08:32:26.060Z,2.30
2023-03-15T08:35:28.766Z,2.78
2023-03-15T08:38:31.520Z,2.10
2023-03-15T08:41:34.812Z,2.03
2023-03-15T08:44:37.594Z,1.23
2023-03-15T08:47:40.335Z,1.43
2023-03-15T08:50:45.469Z,3.28
2023-03-15T08:53:48.425Z,3.67
2023-03-15T08:56:51.137Z,1.63
2023-03-15T08:59:54.046Z,1.38
2023-03-15T09:02:56.808Z,1.57
2023-03-15T09:06:00.222Z,1.70
2023-03-15T09:09:03.797Z,1.58
2023-03-15T09:12:06.732Z,2.05
2023-03-15T09:15:10.011Z,1.27
2023-03-15T09:18:12.729Z,3.53
2023-03-15T09:21:15.633Z,2.83
2023-03-15T09:24:18.473Z,3.35
2023-03-15T09:27:21.141Z,3.53
2023-03-15T09:30:25.842Z,2.85
2023-03-15T09:33:28.624Z,2.27
2023-03-15T09:36:31.902Z,2.92
2023-03-15T09:39:34.687Z,2.88
2023-03-15T09:43:02.283Z,4.38
2023-03-15T09:46:30.465Z,3.25
2023-03-15T09:49:58.052Z,2.10
2023-03-15T09:53:04.136Z,3.50
2023-03-15T09:56:28.867Z,6.05
2023-03-15T09:59:44.077Z,4.25
2023-03-15T10:02:57.054Z,4.97
2023-03-15T10:06:03.487Z,6.20
2023-03-15T10:09:17.076Z,6.82
2023-03-15T10:12:29.704Z,5.25
2023-03-15T10:16:01.721Z,4.80
2023-03-15T10:19:18.971Z,5.85
2023-03-15T10:22:43.432Z,4.97
2023-03-15T10:25:47.315Z,8.63
2023-03-15T10:28:50.348Z,6.50
2023-03-15T10:31:55.236Z,8.77
2023-03-15T10:34:58.956Z,5.75
2023-03-15T10:38:02.757Z,4.13
2023-03-15T10:41:06.656Z,10.02
2023-03-15T10:44:27.613Z,6.13
2023-03-15T10:47:30.301Z,8.75
2023-03-15T10:50:38.748Z,15.10
2023-03-15T10:53:55.674Z,6.60
2023-03-15T10:57:02.211Z,4.30
2023-03-15T11:00:18.588Z,12.70
2023-03-15T11:03:23.812Z,12.45
2023-03-15T11:06:29.009Z,1.05
2023-03-15T11:09:53.321Z,2.13
2023-03-15T11:13:20.588Z,2.85
2023-03-15T11:16:23.315Z,2.35
2023-03-15T11:19:28.242Z,1.42
2023-03-15T11:22:32.425Z,2.40
2023-03-15T11:25:35.180Z,2.77
2023-03-15T11:28:39.522Z,2.42
2023-03-15T11:31:42.614Z,2.50
2023-03-15T11:35:06.819Z,1.98
2023-03-15T11:38:17.468Z,1.10
2023-03-15T11:41:38.934Z,3.60
2023-03-15T11:44:50.721Z,2.70
2023-03-15T11:47:56.844Z,1.35
2023-03-15T11:51:01.465Z,4.35
2023-03-15T11:54:18.334Z,4.68
2023-03-15T11:57:30.782Z,1.87
2023-03-15T12:00:35.702Z,1.92
2023-03-15T12:03:42.768Z,3.40
2023-03-15T12:06:45.510Z,3.13
2023-03-15T12:09:56.392Z,2.83
2023-03-15T12:13:07.813Z,3.83
2023-03-15T12:16:11.737Z,4.72
2023-03-15T12:19:21.110Z,6.35
2023-03-15T12:22:24.365Z,2.75
2023-03-15T12:25:48.979Z,6.25
2023-03-15T12:29:04.047Z,4.03
2023-03-15T12:32:14.811Z,4.95
2023-03-15T12:35:19.061Z,4.15
2023-03-15T12:38:24.882Z,2.67
2023-03-15T12:41:48.982Z,2.72
2023-03-15T12:44:51.658Z,3.37
2023-03-15T12:47:54.280Z,2.53
2023-03-15T12:51:10.854Z,4.38
2023-03-15T12:54:14.252Z,4.35
2023-03-15T12:57:22.434Z,3.92
2023-03-15T13:00:30.483Z,4.27
2023-03-15T13:03:35.877Z,2.72
2023-03-15T13:06:43.405Z,4.43
2023-03-15T13:09:59.373Z,2.75
2023-03-15T13:13:15.791Z,9.25
2023-03-15T13:16:26.496Z,4.33
2023-03-15T13:19:42.245Z,5.28
2023-03-15T13:23:16.120Z,3.88
2023-03-15T13:26:34.431Z,7.18
2023-03-15T13:29:37.246Z,5.40
2023-03-15T13:32:40.229Z,5.97
2023-03-15T13:35:55.948Z,4.15
2023-03-15T13:38:58.764Z,4.97
2023-03-15T13:42:04.233Z,3.75
2023-03-15T13:45:07.244Z,5.13
2023-03-15T13:48:12.275Z,5.37
2023-03-15T13:51:36.291Z,2.97
2023-03-15T13:54:39.366Z,3.05
2023-03-15T13:57:42.189Z,3.78
2023-03-15T14:00:45.371Z,4.03
2023-03-15T14:03:52.230Z,3.17
2023-03-15T14:07:17.157Z,2.95
2023-03-15T14:10:30.260Z,2.67
2023-03-15T14:13:35.863Z,4.63
2023-03-15T14:17:01.109Z,2.00
2023-03-15T14:20:15.769Z,7.83
2023-03-15T14:23:22.463Z,3.97
2023-03-15T14:26:30.195Z,3.85
2023-03-15T14:29:35.202Z,2.58
2023-03-15T14:32:38.987Z,4.10
2023-03-15T14:35:44.483Z,3.70
2023-03-15T14:38:54.905Z,5.15
2023-03-15T14:41:58.023Z,2.67
2023-03-15T14:45:00.817Z,3.75
2023-03-15T14:48:08.530Z,1.95
2023-03-15T14:51:19.681Z,3.13
2023-03-15T14:54:22.539Z,1.60
2023-03-15T14:57:25.211Z,2.33
2023-03-15T15:00:29.653Z,1.95
2023-03-15T15:03:35.726Z,1.33
2023-03-15T15:06:38.413Z,1.73
2023-03-15T15:09:46.791Z,2.60
2023-03-15T15:12:56.135Z,2.28
2023-03-15T15:16:06.474Z,4.32
2023-03-15T15:19:09.676Z,3.03
2023-03-15T15:22:12.418Z,3.27
2023-03-15T15:25:19.663Z,3.75
2023-03-15T15:28:33.936Z,4.35
2023-03-15T15:31:37.818Z,3.33
2023-03-15T15:34:42.804Z,6.32
2023-03-15T15:37:47.846Z,6.97
2023-03-15T15:40:51.453Z,5.07
2023-03-15T15:43:54.596Z,6.97
2023-03-15T15:46:57.610Z,4.47
2023-03-15T15:50:00.292Z,13.63
2023-03-15T15:53:05.544Z,10.00
2023-03-15T15:56:12.715Z,7.95
2023-03-15T15:59:16.681Z,4.20
2023-03-15T16:02:22.589Z,7.72
2023-03-15T16:05:27.125Z,4.97
2023-03-15T16:08:30.723Z,3.10
2023-03-15T16:11:33.776Z,4.50
2023-03-15T16:14:36.762Z,4.32
2023-03-15T16:17:39.623Z,2.50
2023-03-15T16:20:43.428Z,3.33
2023-03-15T16:23:50.413Z,1.87
2023-03-15T16:26:57.293Z,1.98
2023-03-15T16:30:00.163Z,2.22
2023-03-15T16:33:02.926Z,2.90
2023-03-15T16:36:06.168Z,3.40
2023-03-15T16:39:11.695Z,4.33
2023-03-15T16:42:16.249Z,2.92
2023-03-15T16:45:19.697Z,10.40
2023-03-15T16:48:22.304Z,18.33
2023-03-15T16:51:26.278Z,2.85
2023-03-15T16:54:40.523Z,3.13
2023-03-15T16:57:44.378Z,1.55
2023-03-15T17:00:49.462Z,1.83
2023-03-15T17:03:52.594Z,2.33
2023-03-15T17:06:56.466Z,0.47
2023-03-15T17:10:07.974Z,1.53
2023-03-15T17:13:15.271Z,1.15
2023-03-15T17:16:19.376Z,2.58
2023-03-15T17:19:22.381Z,1.67
2023-03-15T17:22:25.613Z,2.83
2023-03-15T17:25:28.253Z,1.83
2023-03-15T17:28:31.205Z,2.35
2023-03-15T17:31:35.406Z,1.35
2023-03-15T17:34:38.463Z,1.05
2023-03-15T17:37:44.912Z,1.88
2023-03-15T17:40:48.616Z,1.20
2023-03-15T17:43:53.047Z,1.80
2023-03-15T17:46:56.009Z,0.52
2023-03-15T17:49:59.115Z,2.67
2023-03-15T17:53:10.937Z,3.58
2023-03-15T17:56:14.246Z,2.20
2023-03-15T17:59:18.244Z,1.42
2023-03-15T18:02:21.878Z,1.65
2023-03-15T18:05:26.127Z,0.60
2023-03-15T18:08:28.736Z,2.05
2023-03-15T18:11:42.257Z,2.03
2023-03-15T18:14:45.212Z,5.28
2023-03-15T18:17:48.347Z,5.18
2023-03-15T18:20:51.833Z,2.15
2023-03-15T18:23:54.976Z,2.25
2023-03-15T18:26:58.887Z,3.50
2023-03-15T18:30:01.954Z,6.50
2023-03-15T18:33:06.000Z,4.28
2023-03-15T18:36:09.396Z,4.68
2023-03-15T18:39:12.959Z,1.67
2023-03-15T18:42:16.110Z,3.00
2023-03-15T18:45:25.340Z,2.75
2023-03-15T18:48:40.007Z,3.70
2023-03-15T18:51:43.941Z,0.95
2023-03-15T18:54:46.866Z,2.97
2023-03-15T18:57:51.144Z,1.53
2023-03-15T19:00:54.762Z,2.53
2023-03-15T19:03:58.026Z,2.60
2023-03-15T19:07:00.972Z,1.95
2023-03-15T19:10:06.292Z,2.30
2023-03-15T19:13:09.277Z,3.97
2023-03-15T19:16:12.401Z,2.67
2023-03-15T19:19:35.282Z,3.13
2023-03-15T19:22:38.969Z,0.77
2023-03-15T19:25:41.586Z,2.35
2023-03-15T19:28:44.859Z,1.90
2023-03-15T19:31:47.938Z,3.50
2023-03-15T19:34:51.070Z,1.45
2023-03-15T19:37:54.037Z,2.58
2023-03-15T19:40:58.905Z,2.72
2023-03-15T19:44:01.595Z,1.73
2023-03-15T19:47:04.769Z,4.13
2023-03-15T19:50:10.684Z,3.25
2023-03-15T19:53:13.848Z,2.42
2023-03-15T19:56:16.877Z,3.33
2023-03-15T19:59:19.869Z,4.63
2023-03-15T20:02:23.062Z,3.72
2023-03-15T20:05:25.976Z,3.70
2023-03-15T20:08:28.862Z,3.53
2023-03-15T20:11:31.951Z,1.95
2023-03-15T20:14:35.572Z,3.23
2023-03-15T20:17:39.969Z,3.60
2023-03-15T20:20:42.968Z,1.75
2023-03-15T20:23:47.155Z,5.57
2023-03-15T20:26:51.857Z,3.03
2023-03-15T20:29:56.650Z,2.07
2023-03-15T20:33:00.547Z,1.50
2023-03-15T20:36:04.280Z,3.22
2023-03-15T20:39:07.663Z,2.88
2023-03-15T20:42:10.766Z,3.38
2023-03-15T20:45:14.142Z,2.03
2023-03-15T20:48:17.002Z,1.08
2023-03-15T20:51:20.054Z,1.08
2023-03-15T20:54:23.081Z,1.75
2023-03-15T20:57:26.229Z,1.52
2023-03-15T21:00:29.293Z,2.40
2023-03-15T21:03:34.162Z,2.15
2023-03-15T21:06:37.153Z,2.58
2023-03-15T21:09:40.585Z,3.47
2023-03-15T21:12:44.187Z,0.85
2023-03-15T21:15:47.505Z,3.00
2023-03-15T21:18:53.178Z,2.08
2023-03-15T21:21:57.110Z,2.40
2023-03-15T21:25:00.523Z,2.15
2023-03-15T21:28:04.349Z,2.92
2023-03-15T21:31:07.605Z,0.97
2023-03-15T21:34:10.489Z,4.75
2023-03-15T21:37:13.154Z,2.65
2023-03-15T21:40:16.078Z,1.35
2023-03-15T21:43:19.053Z,2.45
2023-03-15T21:46:22.073Z,1.53
2023-03-15T21:49:25.438Z,1.58
2023-03-15T21:52:28.555Z,3.13
2023-03-15T21:55:33.675Z,2.25
2023-03-15T21:58:36.828Z,3.70
2023-03-15T22:01:39.702Z,3.37
2023-03-15T22:04:43.363Z,3.45
2023-03-15T22:07:46.406Z,3.60
2023-03-15T22:10:56.132Z,2.15
2023-03-15T22:13:58.809Z,2.20
2023-03-15T22:17:04.854Z,2.97
2023-03-15T22:20:17.282Z,4.20
2023-03-15T22:23:20.363Z,4.13
2023-03-15T22:26:23.127Z,5.35
2023-03-15T22:29:25.975Z,5.28
2023-03-15T22:32:28.628Z,2.37
2023-03-15T22:35:31.320Z,4.75
2023-03-15T22:38:38.059Z,3.97
2023-03-15T22:41:40.795Z,4.00
2023-03-15T22:44:46.055Z,3.92
2023-03-15T22:47:49.638Z,2.30
2023-03-15T22:51:02.753Z,2.95
2023-03-15T22:54:05.711Z,5.25
2023-03-15T22:57:08.350Z,5.20
2023-03-15T23:00:13.734Z,3.30
2023-03-15T23:03:16.933Z,5.03
2023-03-15T23:06:20.198Z,3.70
2023-03-15T23:09:23.107Z,5.78
2023-03-15T23:12:35.883Z,2.75
2023-03-15T23:15:39.432Z,3.42
2023-03-15T23:18:42.640Z,3.77
2023-03-15T23:21:45.740Z,4.43
2023-03-15T23:24:48.504Z,4.38
2023-03-15T23:27:51.621Z,2.42
2023-03-15T23:30:54.399Z,4.85
2023-03-15T23:33:57.072Z,3.53
2023-03-15T23:36:59.634Z,5.47
2023-03-15T23:40:02.248Z,4.22
2023-03-15T23:43:06.006Z,4.18
2023-03-15T23:46:08.798Z,3.47
2023-03-15T23:49:12.934Z,3.27
2023-03-15T23:52:15.734Z,7.38
2023-03-15T23:55:18.611Z,3.85
2023-03-15T23:58:21.819Z,5.07
